Time;durP1;ratioP1;P1;durP2;ratioP2;P2;SDS_P1;SDS_P2;PMS_P1;PMS_P2;Temp;Humidity;BMP_temperature;BMP_pressure;BME280_temperature;BME280_humidity;BME280_pressure;Samples;Min_cycle;Max_cycle;Signal;HPM_P1;HPM_P2
2022/03/05 00:00:20;;;;;;;24.47;14.57;;;-0.90;99.90;;;;;;4917707;29;20174;-29
2022/03/05 00:02:46;;;;;;;23.90;13.50;;;-0.90;99.90;;;;;;4917703;29;20245;-29
2022/03/05 00:05:16;;;;;;;24.30;13.87;;;-1.00;99.90;;;;;;4935018;29;20175;-30
2022/03/05 00:07:41;;;;;;;22.13;12.50;;;-0.90;99.90;;;;;;4902246;29;20202;-30
2022/03/05 00:10:09;;;;;;;25.60;14.37;;;-0.90;99.90;;;;;;4901980;29;20365;-29
2022/03/05 00:12:35;;;;;;;25.70;15.30;;;-1.00;99.90;;;;;;4901944;29;20209;-29
2022/03/05 00:15:01;;;;;;;27.50;15.97;;;-1.00;99.90;;;;;;4917440;29;20214;-30
2022/03/05 00:17:27;;;;;;;30.07;15.73;;;-1.00;99.90;;;;;;4901854;29;20198;-29
2022/03/05 00:19:54;;;;;;;22.87;13.53;;;-1.00;99.90;;;;;;4901800;29;20214;-28
2022/03/05 00:22:20;;;;;;;24.50;14.90;;;-1.00;99.90;;;;;;4901950;29;20224;-30
2022/03/05 00:24:46;;;;;;;28.30;14.93;;;-1.10;99.90;;;;;;4917674;29;20178;-29
2022/03/05 00:27:12;;;;;;;28.10;14.63;;;-1.30;99.90;;;;;;4901891;29;20250;-29
2022/03/05 00:29:38;;;;;;;25.83;14.40;;;-1.30;99.90;;;;;;4901260;29;20197;-28
2022/03/05 00:32:04;;;;;;;26.63;14.97;;;-1.30;99.90;;;;;;4901607;29;20201;-29
2022/03/05 00:34:30;;;;;;;26.70;14.23;;;-1.30;99.90;;;;;;4901642;29;20210;-28
2022/03/05 00:36:56;;;;;;;29.10;15.57;;;-1.30;99.90;;;;;;4917462;29;20185;-29
2022/03/05 00:39:22;;;;;;;28.67;14.70;;;-1.40;99.90;;;;;;4916697;29;20197;-29
2022/03/05 00:41:48;;;;;;;26.70;15.13;;;-1.50;99.90;;;;;;4915522;29;20213;-29
2022/03/05 00:44:14;;;;;;;23.83;14.80;;;-1.60;99.90;;;;;;4915535;29;20206;-30
2022/03/05 00:46:41;;;;;;;28.33;14.53;;;-1.80;99.90;;;;;;4915497;29;20631;-30
2022/03/05 00:49:07;;;;;;;26.77;14.27;;;-1.90;99.90;;;;;;4915310;29;20202;-29
2022/03/05 00:51:33;;;;;;;24.80;13.70;;;-1.90;99.90;;;;;;4915591;29;20216;-29
2022/03/05 00:53:59;;;;;;;23.43;13.53;;;-1.90;99.90;;;;;;4899633;29;20308;-29
2022/03/05 00:56:25;;;;;;;26.33;13.90;;;-1.90;99.90;;;;;;4901131;29;20265;-28
2022/03/05 00:58:51;;;;;;;24.23;13.30;;;-1.90;99.90;;;;;;4915822;29;20213;-28
2022/03/05 01:01:16;;;;;;;22.97;12.53;;;-2.00;99.90;;;;;;4901005;29;20194;-29
2022/03/05 01:03:43;;;;;;;21.20;12.67;;;-1.90;99.90;;;;;;4901241;29;20201;-28
2022/03/05 01:06:09;;;;;;;25.43;13.27;;;-1.80;99.90;;;;;;4916856;29;20251;-29
2022/03/05 01:08:34;;;;;;;25.77;12.23;;;-1.80;99.90;;;;;;4901063;29;20201;-28
2022/03/05 01:11:01;;;;;;;22.40;12.67;;;-1.70;99.90;;;;;;4889359;29;20289;-28
2022/03/05 01:13:26;;;;;;;22.00;12.17;;;-1.80;99.90;;;;;;4897719;29;20313;-30
2022/03/05 01:15:52;;;;;;;23.77;12.40;;;-1.70;99.90;;;;;;4897973;29;20273;-29
2022/03/05 01:18:18;;;;;;;21.27;11.87;;;-1.70;99.90;;;;;;4897791;29;20225;-28
2022/03/05 01:20:44;;;;;;;21.30;12.13;;;-1.70;99.90;;;;;;4897761;29;20728;-29
2022/03/05 01:23:10;;;;;;;21.50;12.73;;;-1.80;99.90;;;;;;4897841;29;20202;-30
2022/03/05 01:25:36;;;;;;;25.10;12.63;;;-1.80;99.90;;;;;;4898148;29;20555;-28
2022/03/05 01:28:02;;;;;;;22.70;12.77;;;-1.80;99.90;;;;;;4897883;29;20174;-29
2022/03/05 01:30:28;;;;;;;21.17;11.50;;;-1.80;99.90;;;;;;4897632;29;20234;-29
2022/03/05 01:32:54;;;;;;;22.03;11.77;;;-1.80;99.90;;;;;;4897799;29;20210;-30
2022/03/05 01:35:19;;;;;;;24.53;12.10;;;-1.80;99.90;;;;;;4898013;29;20210;-29
2022/03/05 01:37:45;;;;;;;21.53;12.17;;;-1.90;99.90;;;;;;4897997;29;20192;-30
2022/03/05 01:40:11;;;;;;;23.13;12.03;;;-1.90;99.90;;;;;;4902401;29;20245;-28
2022/03/05 01:42:37;;;;;;;23.13;13.00;;;-1.90;99.90;;;;;;4900870;29;20218;-29
2022/03/05 01:45:04;;;;;;;24.83;13.53;;;-1.90;99.90;;;;;;4901235;29;20453;-29
2022/03/05 01:47:30;;;;;;;28.43;13.70;;;-1.90;99.90;;;;;;4933713;29;20172;-28
2022/03/05 01:49:56;;;;;;;25.50;13.17;;;-1.90;99.90;;;;;;4900046;29;20186;-29
2022/03/05 01:52:22;;;;;;;25.70;13.77;;;-1.90;99.90;;;;;;4916672;29;20202;-30
2022/03/05 01:54:48;;;;;;;25.90;13.57;;;-1.90;99.90;;;;;;4900516;29;20274;-30
2022/03/05 01:57:14;;;;;;;26.07;14.60;;;-1.90;99.90;;;;;;4900663;29;20281;-29
2022/03/05 01:59:40;;;;;;;28.10;14.73;;;-1.90;99.90;;;;;;4900268;29;20302;-28
2022/03/05 02:02:06;;;;;;;26.17;13.83;;;-1.80;99.90;;;;;;4900624;29;20190;-28
2022/03/05 02:04:32;;;;;;;23.10;13.23;;;-1.80;99.90;;;;;;4900599;29;20206;-28
2022/03/05 02:06:58;;;;;;;22.53;11.77;;;-1.90;99.90;;;;;;4933509;29;20193;-29
2022/03/05 02:09:24;;;;;;;19.60;11.37;;;-2.00;99.90;;;;;;4900903;29;20277;-28
2022/03/05 02:11:51;;;;;;;22.57;12.40;;;-2.10;99.90;;;;;;4904216;29;20682;-28
2022/03/05 02:14:18;;;;;;;21.73;11.77;;;-2.00;99.90;;;;;;4980340;23;20234;-36
2022/03/05 02:16:44;;;;;;;23.33;11.87;;;-2.00;99.90;;;;;;4996675;28;20179;-35
2022/03/05 02:19:10;;;;;;;21.50;12.00;;;-2.10;99.90;;;;;;4996913;28;20214;-35
2022/03/05 02:21:36;;;;;;;24.83;11.30;;;-2.20;99.90;;;;;;4996850;28;20172;-35
2022/03/05 02:24:03;;;;;;;23.40;12.40;;;-2.20;99.90;;;;;;4996279;28;20222;-36
2022/03/05 02:26:29;;;;;;;23.53;12.13;;;-2.30;99.90;;;;;;4996947;28;20179;-35
2022/03/05 02:28:55;;;;;;;22.40;12.17;;;-2.40;99.90;;;;;;4995738;28;20179;-36
2022/03/05 02:31:22;;;;;;;22.43;12.80;;;-2.30;99.90;;;;;;4979089;28;20237;-35
2022/03/05 02:33:52;;;;;;;20.30;11.53;;;-2.40;99.90;;;;;;4980455;28;20217;-35
2022/03/05 02:36:19;;;;;;;22.07;12.23;;;-2.40;99.90;;;;;;4996345;28;20187;-35
2022/03/05 02:38:44;;;;;;;24.17;12.27;;;-2.40;99.90;;;;;;5013937;28;20199;-36
2022/03/05 02:41:10;;;;;;;24.17;12.83;;;-2.30;99.90;;;;;;4996058;28;20242;-35
2022/03/05 02:43:36;;;;;;;21.13;11.43;;;-2.50;99.90;;;;;;4996395;28;20242;-35
2022/03/05 02:46:02;;;;;;;23.33;11.77;;;-2.50;99.90;;;;;;4996397;28;20186;-35
2022/03/05 02:48:29;;;;;;;23.03;12.10;;;-2.50;99.90;;;;;;4996297;28;20579;-35
2022/03/05 02:50:55;;;;;;;22.87;12.67;;;-2.60;99.90;;;;;;4995622;28;20306;-35
2022/03/05 02:53:21;;;;;;;22.23;12.03;;;-2.70;99.90;;;;;;4996241;28;20346;-35
2022/03/05 02:55:47;;;;;;;20.63;11.43;;;-2.80;99.90;;;;;;4980039;28;20186;-35
2022/03/05 02:58:13;;;;;;;20.03;10.87;;;-2.90;99.90;;;;;;4996156;28;20179;-35
2022/03/05 03:00:39;;;;;;;21.10;11.30;;;-2.90;99.90;;;;;;4979711;28;20182;-35
2022/03/05 03:03:05;;;;;;;22.77;11.03;;;-2.90;99.90;;;;;;4996163;28;20204;-35
2022/03/05 03:05:31;;;;;;;21.33;10.70;;;-2.80;99.90;;;;;;4995841;28;20176;-35
2022/03/05 03:07:57;;;;;;;19.87;10.53;;;-2.80;99.90;;;;;;4995984;28;20214;-35
2022/03/05 03:10:23;;;;;;;19.03;10.87;;;-2.80;99.90;;;;;;4995687;28;20211;-35
2022/03/05 03:12:49;;;;;;;21.50;11.03;;;-2.70;99.90;;;;;;4995702;28;20218;-35
2022/03/05 03:15:16;;;;;;;18.00;10.07;;;-2.70;99.90;;;;;;4995940;28;20187;-35
2022/03/05 03:17:44;;;;;;;16.83;10.47;;;-2.60;99.90;;;;;;4979555;28;20192;-35
2022/03/05 03:20:12;;;;;;;19.57;10.87;;;-2.70;99.90;;;;;;4995487;28;20278;-35
2022/03/05 03:22:39;;;;;;;20.63;10.97;;;-2.70;99.90;;;;;;4994917;28;20191;-35
2022/03/05 03:25:06;;;;;;;19.43;10.50;;;-2.60;99.90;;;;;;4995727;28;20234;-35
2022/03/05 03:27:33;;;;;;;20.33;9.93;;;-2.70;99.90;;;;;;4995595;28;20190;-35
2022/03/05 03:29:59;;;;;;;20.00;11.30;;;-2.70;99.90;;;;;;4979057;28;20185;-35
2022/03/05 03:32:25;;;;;;;20.03;10.67;;;-2.80;99.90;;;;;;4995430;28;20187;-35
2022/03/05 03:34:51;;;;;;;18.70;10.33;;;-2.90;99.90;;;;;;4995213;28;20278;-36
2022/03/05 03:37:17;;;;;;;19.50;10.10;;;-2.90;99.90;;;;;;4979413;28;20179;-36
2022/03/05 03:39:43;;;;;;;22.20;11.23;;;-2.90;99.90;;;;;;4995009;28;20258;-35
2022/03/05 03:42:09;;;;;;;18.43;10.27;;;-3.00;99.90;;;;;;4995528;28;20187;-35
2022/03/05 03:44:35;;;;;;;24.13;10.93;;;-3.00;99.90;;;;;;4995262;28;20285;-35
2022/03/05 03:47:02;;;;;;;18.63;9.83;;;-3.10;99.90;;;;;;4995176;28;20258;-36
2022/03/05 03:49:28;;;;;;;18.67;10.20;;;-3.10;99.90;;;;;;4978795;28;20198;-35
2022/03/05 03:51:54;;;;;;;21.77;10.57;;;-3.10;99.90;;;;;;5012690;28;20172;-35
2022/03/05 03:54:20;;;;;;;20.87;10.77;;;-3.10;99.90;;;;;;4994843;28;20207;-35
2022/03/05 03:56:46;;;;;;;19.70;10.10;;;-3.10;99.90;;;;;;4995326;28;20187;-35
2022/03/05 03:59:12;;;;;;;24.07;10.90;;;-3.10;99.90;;;;;;4978615;28;20318;-35
2022/03/05 04:01:39;;;;;;;15.60;9.33;;;-3.10;99.90;;;;;;4995310;28;20191;-35
2022/03/05 04:04:04;;;;;;;18.00;10.00;;;-3.10;99.90;;;;;;4994691;28;20880;-35
2022/03/05 04:08:41;;;;;;;18.30;9.83;;;-3.20;99.90;;;;;;4978386;28;20194;-35
2022/03/05 04:09:16;;;;;;;19.70;10.33;;;-3.20;99.90;;;;;;4994745;28;20190;-35
2022/03/05 04:11:43;;;;;;;17.00;9.83;;;-3.20;99.90;;;;;;4994767;28;20191;-35
2022/03/05 04:14:08;;;;;;;21.67;10.33;;;-3.20;99.90;;;;;;4994421;28;20226;-35
2022/03/05 04:16:34;;;;;;;19.60;9.93;;;-3.20;99.90;;;;;;4994421;28;20217;-35
2022/03/05 04:19:02;;;;;;;15.73;9.13;;;-3.20;99.90;;;;;;4978334;28;20249;-36
2022/03/05 04:21:27;;;;;;;17.70;9.63;;;-3.20;99.90;;;;;;4978683;28;20175;-35
2022/03/05 04:23:53;;;;;;;17.73;9.07;;;-3.20;99.90;;;;;;4978319;28;20253;-35
2022/03/05 04:26:19;;;;;;;18.60;9.90;;;-3.20;99.90;;;;;;4994602;28;20179;-35
2022/03/05 04:28:45;;;;;;;19.70;9.90;;;-3.30;99.90;;;;;;5011997;28;20189;-36
2022/03/05 04:31:11;;;;;;;18.33;10.03;;;-3.30;99.90;;;;;;4977865;28;20189;-35
2022/03/05 04:33:36;;;;;;;18.47;10.10;;;-3.30;99.90;;;;;;4977849;28;20210;-35
2022/03/05 04:36:02;;;;;;;18.50;10.30;;;-3.40;99.90;;;;;;4994364;28;20183;-35
2022/03/05 04:38:28;;;;;;;18.70;10.53;;;-3.40;99.90;;;;;;4982915;28;20258;-36
2022/03/05 04:40:55;;;;;;;19.23;10.73;;;-3.50;99.90;;;;;;5002686;28;20179;-36
2022/03/05 04:43:21;;;;;;;19.17;10.90;;;-3.50;99.90;;;;;;4966468;28;20255;-35
2022/03/05 04:45:47;;;;;;;17.53;9.90;;;-3.50;99.90;;;;;;4985089;28;20181;-36
2022/03/05 04:48:13;;;;;;;21.33;11.00;;;-3.50;99.90;;;;;;4981947;28;20179;-35
2022/03/05 04:50:39;;;;;;;20.67;10.77;;;-3.50;99.90;;;;;;4968247;28;20187;-37
2022/03/05 04:53:05;;;;;;;18.00;10.10;;;-3.60;99.90;;;;;;4999542;28;20204;-35
2022/03/05 04:55:31;;;;;;;18.27;10.47;;;-3.60;99.90;;;;;;4984215;28;20237;-35
2022/03/05 04:57:56;;;;;;;20.43;10.30;;;-3.60;99.90;;;;;;4968942;28;20175;-35
2022/03/05 05:00:23;;;;;;;20.47;10.50;;;-3.70;99.90;;;;;;4968586;28;20240;-35
2022/03/05 05:02:49;;;;;;;19.90;10.30;;;-3.70;99.90;;;;;;4981559;28;20226;-35
2022/03/05 05:05:15;;;;;;;17.87;9.47;;;-3.80;99.90;;;;;;4957241;28;20243;-35
2022/03/05 05:07:40;;;;;;;22.17;10.20;;;-3.90;99.90;;;;;;4958561;28;20203;-35
2022/03/05 05:10:07;;;;;;;17.17;9.97;;;-3.90;99.90;;;;;;4985194;28;20187;-35
2022/03/05 05:12:32;;;;;;;18.93;9.90;;;-3.90;99.90;;;;;;4993593;28;20183;-35
2022/03/05 05:14:58;;;;;;;18.73;9.93;;;-4.00;99.90;;;;;;4977491;28;20190;-36
2022/03/05 05:17:24;;;;;;;21.13;10.40;;;-4.20;99.90;;;;;;4993738;28;20284;-35
2022/03/05 05:19:50;;;;;;;18.53;10.20;;;-4.30;99.90;;;;;;4993445;28;20219;-35
2022/03/05 05:22:16;;;;;;;18.67;10.33;;;-4.20;99.90;;;;;;4977751;28;20233;-35
2022/03/05 05:24:42;;;;;;;19.37;9.67;;;-4.20;99.90;;;;;;4993655;28;20191;-35
2022/03/05 05:27:08;;;;;;;19.03;9.57;;;-4.10;99.90;;;;;;4977274;28;20226;-35
2022/03/05 05:29:33;;;;;;;21.37;10.33;;;-4.10;99.90;;;;;;4993484;28;20183;-35
2022/03/05 05:31:59;;;;;;;15.03;9.27;;;-4.10;99.90;;;;;;4993084;28;20614;-35
2022/03/05 05:34:25;;;;;;;17.63;9.53;;;-4.10;99.90;;;;;;5011093;28;20202;-35
2022/03/05 05:36:51;;;;;;;16.47;9.47;;;-4.10;99.90;;;;;;4993735;28;20214;-37
2022/03/05 05:39:17;;;;;;;20.17;9.40;;;-4.00;99.90;;;;;;4976973;28;20280;-37
2022/03/05 05:41:44;;;;;;;16.23;8.67;;;-4.00;99.90;;;;;;5009417;28;20175;-37
2022/03/05 05:44:12;;;;;;;15.50;8.87;;;-4.00;99.90;;;;;;4975841;28;20230;-35
2022/03/05 05:46:38;;;;;;;16.80;8.93;;;-4.10;99.90;;;;;;4979655;28;20171;-35
2022/03/05 05:49:05;;;;;;;17.30;9.20;;;-4.10;99.90;;;;;;4979676;28;20179;-35
2022/03/05 05:51:32;;;;;;;15.70;8.67;;;-4.20;99.90;;;;;;4995983;28;20194;-35
2022/03/05 05:54:01;;;;;;;18.17;8.83;;;-4.20;99.90;;;;;;4996163;28;20269;-38
2022/03/05 05:56:27;;;;;;;16.23;8.80;;;-4.20;99.90;;;;;;4980139;28;20234;-35
2022/03/05 05:58:53;;;;;;;19.00;9.87;;;-4.20;99.90;;;;;;4996800;28;20253;-35
2022/03/05 06:01:19;;;;;;;17.13;9.00;;;-4.20;99.90;;;;;;4980906;28;20184;-38
2022/03/05 06:03:45;;;;;;;19.27;9.70;;;-4.10;99.90;;;;;;4980952;28;20207;-38
2022/03/05 06:06:12;;;;;;;17.17;8.77;;;-4.20;99.90;;;;;;4980889;28;20234;-35
2022/03/05 06:08:38;;;;;;;16.80;9.10;;;-4.20;99.90;;;;;;4981181;28;20182;-35
2022/03/05 06:11:04;;;;;;;17.00;10.80;;;-4.30;99.90;;;;;;4996713;28;20710;-36
2022/03/05 06:13:30;;;;;;;18.27;9.70;;;-4.30;99.90;;;;;;4996760;28;20214;-38
2022/03/05 06:15:56;;;;;;;18.33;9.37;;;-4.40;99.90;;;;;;4996779;28;20306;-37
2022/03/05 06:18:22;;;;;;;20.47;9.70;;;-4.40;99.90;;;;;;4980841;28;20192;-37
2022/03/05 06:20:48;;;;;;;20.90;9.43;;;-4.40;99.90;;;;;;5014592;28;20175;-35
2022/03/05 06:23:14;;;;;;;19.60;9.63;;;-4.30;99.90;;;;;;4997014;28;20243;-35
2022/03/05 06:25:39;;;;;;;15.70;9.03;;;-4.20;99.90;;;;;;4980074;28;20617;-38
2022/03/05 06:28:05;;;;;;;18.13;9.43;;;-4.20;99.90;;;;;;4996797;28;20189;-38
2022/03/05 06:30:32;;;;;;;18.03;9.77;;;-4.20;99.90;;;;;;4980271;28;20215;-38
2022/03/05 06:32:58;;;;;;;17.43;9.63;;;-4.20;99.90;;;;;;4996611;28;20281;-37
2022/03/05 06:35:24;;;;;;;20.53;10.13;;;-4.10;99.90;;;;;;4980491;28;20179;-35
2022/03/05 06:37:50;;;;;;;24.60;14.43;;;-4.10;99.90;;;;;;4996685;28;20186;-35
2022/03/05 06:40:15;;;;;;;18.33;10.17;;;-4.00;99.90;;;;;;4979739;28;20218;-35
2022/03/05 06:42:42;;;;;;;18.53;10.10;;;-4.00;99.90;;;;;;4996434;28;20179;-38
2022/03/05 06:45:09;;;;;;;18.47;9.97;;;-3.90;99.90;;;;;;4996176;28;20322;-36
2022/03/05 06:47:36;;;;;;;19.00;10.43;;;-3.90;99.90;;;;;;4980281;28;20187;-35
2022/03/05 06:50:03;;;;;;;20.10;10.07;;;-3.80;99.90;;;;;;4979431;28;20180;-38
2022/03/05 06:52:28;;;;;;;22.00;9.23;;;-3.60;99.90;;;;;;5013673;28;20194;-37
2022/03/05 06:54:55;;;;;;;37.50;18.90;;;-3.50;99.90;;;;;;4979967;28;20622;-37
2022/03/05 06:57:21;;;;;;;24.37;13.17;;;-3.40;99.90;;;;;;4996211;28;20190;-35
2022/03/05 06:59:47;;;;;;;17.83;10.87;;;-3.50;99.90;;;;;;4985504;28;20208;-38
2022/03/05 07:02:13;;;;;;;16.93;9.77;;;-3.50;99.90;;;;;;4971480;28;20182;-35
2022/03/05 07:04:39;;;;;;;20.10;10.27;;;-3.40;99.90;;;;;;4970713;28;20199;-38
2022/03/05 07:07:05;;;;;;;19.50;10.07;;;-3.20;99.90;;;;;;4996006;28;20179;-35
2022/03/05 07:09:30;;;;;;;18.33;10.20;;;-3.00;99.90;;;;;;4995727;28;20187;-38
2022/03/05 07:11:56;;;;;;;17.10;9.40;;;-2.90;99.90;;;;;;4962466;28;20206;-37
2022/03/05 07:14:22;;;;;;;15.50;9.57;;;-2.80;99.90;;;;;;4976071;28;20219;-37
2022/03/05 07:16:48;;;;;;;17.40;10.33;;;-2.70;99.90;;;;;;4978921;28;20184;-35
2022/03/05 07:19:14;;;;;;;18.83;10.07;;;-2.60;99.90;;;;;;4975981;28;20207;-38
2022/03/05 07:21:40;;;;;;;16.27;9.97;;;-2.50;99.90;;;;;;4994564;28;20675;-37
2022/03/05 07:24:08;;;;;;;15.43;8.93;;;-2.30;99.90;;;;;;4995464;28;20257;-39
2022/03/05 07:26:34;;;;;;;17.37;10.10;;;-2.20;99.90;;;;;;4995517;28;20192;-36
2022/03/05 07:29:00;;;;;;;18.40;9.67;;;-2.10;99.90;;;;;;4979347;28;20270;-35
2022/03/05 07:31:27;;;;;;;18.30;10.40;;;-2.00;99.90;;;;;;4979367;28;20317;-38
2022/03/05 07:33:52;;;;;;;22.27;11.70;;;-2.00;99.90;;;;;;4995454;28;20210;-35
2022/03/05 07:36:22;;;;;;;26.10;14.87;;;-1.90;99.90;;;;;;5012979;28;20176;-36
2022/03/05 07:38:47;;;;;;;26.07;13.53;;;-1.90;99.90;;;;;;4995340;28;20221;-38
2022/03/05 07:41:13;;;;;;;24.63;14.13;;;-1.80;99.90;;;;;;4979268;28;20183;-36
2022/03/05 07:43:40;;;;;;;24.27;13.80;;;-1.90;99.90;;;;;;4979101;28;20203;-38
2022/03/05 07:46:06;;;;;;;27.13;13.37;;;-1.80;99.90;;;;;;4975363;28;20262;-36
2022/03/05 07:48:32;;;;;;;22.90;13.50;;;-1.70;99.90;;;;;;4994289;28;20222;-36
2022/03/05 07:51:02;;;;;;;24.67;12.73;;;-1.60;99.90;;;;;;4986995;28;20191;-37
2022/03/05 07:53:31;;;;;;;27.33;12.60;;;-1.50;99.90;;;;;;4993185;28;20210;-35
2022/03/05 07:55:57;;;;;;;20.97;12.20;;;-1.30;99.90;;;;;;4975793;28;20183;-35
2022/03/05 07:58:23;;;;;;;21.43;12.93;;;-1.10;99.90;;;;;;4960543;28;20531;-35
2022/03/05 08:00:49;;;;;;;23.67;13.20;;;-1.00;99.90;;;;;;4994828;28;20186;-35
2022/03/05 08:03:15;;;;;;;20.67;12.87;;;-0.80;99.90;;;;;;4994934;28;20196;-37
2022/03/05 08:05:43;;;;;;;23.13;12.63;;;-0.70;99.90;;;;;;4978409;28;20183;-38
2022/03/05 08:08:09;;;;;;;21.83;12.70;;;-0.70;99.90;;;;;;4988529;28;20179;-36
2022/03/05 08:10:34;;;;;;;23.53;12.17;;;-0.60;99.90;;;;;;4994323;28;20187;-36
2022/03/05 08:13:00;;;;;;;23.03;13.20;;;-0.50;99.90;;;;;;4994778;28;20219;-38
2022/03/05 08:15:27;;;;;;;20.60;12.93;;;-0.30;99.90;;;;;;4991956;28;20190;-37
2022/03/05 08:17:58;;;;;;;21.17;11.97;;;-0.20;99.90;;;;;;4969523;28;20190;-36
2022/03/05 08:20:26;;;;;;;20.80;12.83;;;0.00;99.90;;;;;;4968892;28;20213;-36
2022/03/05 08:22:54;;;;;;;20.13;12.20;;;0.10;99.90;;;;;;4966903;28;20291;-39
2022/03/05 08:25:20;;;;;;;23.13;12.97;;;0.30;99.90;;;;;;4985178;28;20195;-38
2022/03/05 08:27:47;;;;;;;20.10;12.23;;;0.40;99.90;;;;;;4959204;28;20183;-36
2022/03/05 08:30:13;;;;;;;20.77;12.53;;;0.60;99.90;;;;;;4983979;28;20179;-36
2022/03/05 08:32:39;;;;;;;20.90;13.07;;;0.80;99.90;;;;;;4999338;28;20194;-36
2022/03/05 08:35:06;;;;;;;19.43;12.60;;;1.00;99.90;;;;;;4967405;28;20176;-39
2022/03/05 08:37:32;;;;;;;22.93;12.63;;;1.20;99.90;;;;;;4962331;28;20190;-41
2022/03/05 08:39:58;;;;;;;21.50;11.77;;;1.40;99.90;;;;;;4984836;28;20196;-38
2022/03/05 08:42:24;;;;;;;22.53;13.23;;;1.60;99.90;;;;;;4963412;28;20195;-36
2022/03/05 08:44:50;;;;;;;20.23;12.40;;;1.80;99.90;;;;;;4974757;28;20170;-36
2022/03/05 08:47:16;;;;;;;20.53;12.43;;;2.00;99.90;;;;;;4958428;28;20183;-36
2022/03/05 08:49:42;;;;;;;21.07;12.37;;;2.30;99.90;;;;;;4999434;28;20269;-36
2022/03/05 08:52:08;;;;;;;20.67;11.90;;;2.40;99.90;;;;;;4973856;28;20178;-36
2022/03/05 08:54:34;;;;;;;20.87;12.67;;;2.60;99.90;;;;;;5000382;28;20222;-36
2022/03/05 08:57:00;;;;;;;20.90;12.80;;;2.80;99.90;;;;;;4983133;28;20179;-39
2022/03/05 08:59:26;;;;;;;21.70;12.97;;;3.00;99.90;;;;;;4983642;28;20264;-39
2022/03/05 09:01:53;;;;;;;21.47;12.80;;;3.20;99.90;;;;;;4987468;28;20202;-38
2022/03/05 09:04:19;;;;;;;22.37;12.13;;;3.40;99.90;;;;;;4978939;28;20208;-38
2022/03/05 09:06:45;;;;;;;20.57;11.80;;;3.50;99.90;;;;;;4998102;28;20570;-40
2022/03/05 09:09:11;;;;;;;21.17;13.53;;;3.70;99.90;;;;;;4966779;28;20180;-36
2022/03/05 09:11:38;;;;;;;18.80;12.17;;;3.80;99.90;;;;;;4986756;28;20233;-39
2022/03/05 09:14:05;;;;;;;19.93;12.03;;;3.90;99.90;;;;;;4988481;28;20219;-36
2022/03/05 09:16:31;;;;;;;18.63;11.80;;;4.00;99.90;;;;;;4991548;28;20225;-38
2022/03/05 09:18:57;;;;;;;20.70;11.90;;;4.10;99.90;;;;;;4989571;28;20203;-37
2022/03/05 09:21:23;;;;;;;19.93;11.40;;;4.20;99.90;;;;;;4980992;28;20183;-39
2022/03/05 09:23:49;;;;;;;18.03;11.43;;;4.30;99.90;;;;;;4971057;28;20195;-36
2022/03/05 09:26:15;;;;;;;21.63;11.57;;;4.40;99.90;;;;;;4988608;28;20263;-36
2022/03/05 09:28:42;;;;;;;19.10;11.10;;;4.50;99.90;;;;;;5005453;28;20194;-36
2022/03/05 09:31:09;;;;;;;18.03;10.97;;;4.70;99.90;;;;;;5006003;28;20179;-39
2022/03/05 09:33:35;;;;;;;16.47;10.40;;;4.80;99.90;;;;;;4988539;28;20725;-39
2022/03/05 09:36:00;;;;;;;15.67;10.80;;;4.90;99.90;;;;;;4993578;28;20210;-36
2022/03/05 09:38:26;;;;;;;15.10;10.00;;;5.00;99.90;;;;;;5007588;28;20193;-37
2022/03/05 09:40:53;;;;;;;17.20;10.47;;;5.20;99.90;;;;;;4981293;28;20195;-39
2022/03/05 09:43:20;;;;;;;17.87;10.77;;;5.30;99.90;;;;;;4977124;28;20203;-37
2022/03/05 09:45:47;;;;;;;16.63;10.20;;;5.40;99.90;;;;;;4992539;28;20266;-37
2022/03/05 09:48:16;;;;;;;15.57;10.07;;;5.40;99.90;;;;;;5007689;28;20246;-39
2022/03/05 09:50:43;;;;;;;15.67;10.03;;;5.50;99.90;;;;;;5009668;28;20185;-40
2022/03/05 09:53:10;;;;;;;16.33;10.50;;;5.50;99.90;;;;;;4993416;28;20212;-37
2022/03/05 09:55:36;;;;;;;14.17;9.57;;;5.70;99.90;;;;;;4989628;28;20254;-37
2022/03/05 09:58:02;;;;;;;21.17;10.83;;;5.80;99.90;;;;;;4969795;28;20587;-42
2022/03/05 10:00:30;;;;;;;16.33;10.23;;;5.90;99.90;;;;;;4966908;28;20224;-43
2022/03/05 10:02:59;;;;;;;18.47;10.40;;;5.90;99.90;;;;;;4974879;28;20204;-39
2022/03/05 10:05:27;;;;;;;16.17;9.93;;;5.90;99.90;;;;;;4968675;28;20191;-39
2022/03/05 10:08:13;;;;;;;17.33;9.97;;;6.00;99.90;;;;;;5010185;28;20180;-39
2022/03/05 10:10:50;;;;;;;16.27;10.23;;;6.00;99.90;;;;;;4966014;28;20688;-36
2022/03/05 10:13:25;;;;;;;13.40;9.27;;;6.10;99.90;;;;;;5008198;28;20213;-39
2022/03/05 10:15:54;;;;;;;14.10;8.97;;;6.10;99.90;;;;;;5007353;28;20191;-40
2022/03/05 10:18:46;;;;;;;16.00;8.83;;;6.20;99.90;;;;;;4978748;28;20217;-39
2022/03/05 10:21:12;;;;;;;12.50;8.17;;;6.20;99.40;;;;;;4981542;28;20618;-40
2022/03/05 10:23:42;;;;;;;16.73;8.67;;;6.30;99.30;;;;;;4981436;28;20215;-39
2022/03/05 10:26:09;;;;;;;13.60;7.87;;;6.40;98.70;;;;;;4993049;28;20188;-40
2022/03/05 10:28:37;;;;;;;13.57;8.13;;;6.50;98.90;;;;;;4993076;28;20187;-39
2022/03/05 10:31:09;;;;;;;14.80;9.10;;;6.50;98.10;;;;;;4994609;28;20267;-39
2022/03/05 10:33:36;;;;;;;11.37;7.30;;;6.60;98.60;;;;;;5013918;28;20259;-38
2022/03/05 10:36:08;;;;;;;12.47;7.93;;;6.70;97.60;;;;;;4980318;28;20183;-37
2022/03/05 10:38:47;;;;;;;11.60;6.47;;;6.80;97.00;;;;;;4980078;28;20182;-41
2022/03/05 10:41:17;;;;;;;11.03;7.03;;;6.90;95.60;;;;;;4966735;28;20537;-36
2022/03/05 10:43:45;;;;;;;9.63;6.20;;;6.90;95.80;;;;;;4992581;28;20252;-36
2022/03/05 10:46:11;;;;;;;11.13;7.17;;;6.90;96.20;;;;;;4986809;28;20175;-37
2022/03/05 10:48:40;;;;;;;12.70;7.97;;;7.00;96.00;;;;;;4986104;28;20174;-36
2022/03/05 10:51:18;;;;;;;12.27;7.90;;;7.10;95.70;;;;;;5004695;28;20186;-36
2022/03/05 10:53:47;;;;;;;10.30;7.10;;;7.20;96.10;;;;;;4973627;28;20657;-36
2022/03/05 10:56:33;;;;;;;11.50;7.13;;;7.20;96.00;;;;;;4962971;28;20306;-38
2022/03/05 10:59:05;;;;;;;10.20;6.60;;;7.30;95.60;;;;;;4994609;28;20217;-37
2022/03/05 11:01:32;;;;;;;11.10;7.07;;;7.40;95.80;;;;;;4961116;28;20231;-36
2022/03/05 11:04:09;;;;;;;10.20;6.87;;;7.50;95.30;;;;;;4964600;28;20212;-37
2022/03/05 11:06:40;;;;;;;9.97;6.87;;;7.50;94.90;;;;;;4979918;28;20182;-39
2022/03/05 11:09:08;;;;;;;9.03;6.03;;;7.60;94.60;;;;;;5007102;28;20539;-38
2022/03/05 11:11:40;;;;;;;9.57;6.57;;;7.60;94.70;;;;;;4990486;28;20266;-36
2022/03/05 11:14:13;;;;;;;11.03;6.90;;;7.70;94.50;;;;;;4987250;28;20220;-39
2022/03/05 11:16:41;;;;;;;13.37;6.43;;;7.90;95.10;;;;;;4974590;28;20298;-42
2022/03/05 11:19:08;;;;;;;8.03;5.37;;;7.90;93.80;;;;;;4990688;28;20717;-37
2022/03/05 11:21:36;;;;;;;8.27;6.00;;;7.70;94.20;;;;;;4990938;28;20178;-37
2022/03/05 11:24:04;;;;;;;9.33;5.83;;;7.90;94.30;;;;;;4979811;28;20198;-40
2022/03/05 11:26:32;;;;;;;8.13;5.23;;;7.90;93.40;;;;;;4988175;28;20183;-36
2022/03/05 11:28:58;;;;;;;8.23;5.47;;;8.10;93.20;;;;;;4978382;28;20190;-39
2022/03/05 11:31:32;;;;;;;7.97;5.73;;;8.10;93.30;;;;;;4973037;28;20300;-42
2022/03/05 11:34:15;;;;;;;6.43;5.13;;;8.20;92.80;;;;;;4973608;28;20718;-39
2022/03/05 11:36:42;;;;;;;9.17;5.40;;;8.20;91.90;;;;;;4987643;28;20191;-39
2022/03/05 11:39:25;;;;;;;8.63;5.20;;;8.20;92.10;;;;;;5003360;28;20545;-41
2022/03/05 11:41:51;;;;;;;6.57;5.20;;;8.10;91.70;;;;;;4985342;28;20186;-42
2022/03/05 11:44:19;;;;;;;9.77;5.70;;;8.20;92.00;;;;;;5000325;28;20260;-39
2022/03/05 11:46:48;;;;;;;7.90;5.60;;;8.30;91.90;;;;;;4981506;28;20179;-40
2022/03/05 11:49:17;;;;;;;7.60;5.33;;;8.40;92.30;;;;;;4965988;28;20187;-37
2022/03/05 11:51:53;;;;;;;9.07;5.27;;;8.50;92.40;;;;;;4988353;28;20184;-41
2022/03/05 11:54:18;;;;;;;7.63;4.90;;;8.60;91.10;;;;;;4972117;28;20211;-37
2022/03/05 11:57:14;;;;;;;7.23;4.97;;;8.60;91.70;;;;;;4971683;28;20188;-39
2022/03/05 11:59:43;;;;;;;6.70;4.30;;;8.50;90.60;;;;;;4991626;28;20269;-42
2022/03/05 12:02:09;;;;;;;7.40;5.00;;;8.70;91.50;;;;;;4978870;28;20175;-41
2022/03/05 12:04:43;;;;;;;7.07;5.43;;;8.90;91.00;;;;;;4995319;28;20214;-39
2022/03/05 12:07:14;;;;;;;6.93;4.87;;;9.00;90.60;;;;;;4978902;28;20179;-37
2022/03/05 12:10:02;;;;;;;7.80;5.20;;;9.10;90.20;;;;;;4978369;28;20730;-38
2022/03/05 12:12:51;;;;;;;5.97;4.20;;;9.10;90.00;;;;;;4975387;28;20215;-37
2022/03/05 12:15:17;;;;;;;7.50;4.90;;;9.10;89.00;;;;;;4975370;28;20187;-37
2022/03/05 12:17:48;;;;;;;6.97;5.03;;;9.20;89.80;;;;;;4958967;28;20188;-37
2022/03/05 12:20:29;;;;;;;7.10;5.40;;;9.30;90.00;;;;;;4958878;28;20207;-38
2022/03/05 12:23:08;;;;;;;7.47;5.07;;;9.40;88.40;;;;;;4987367;28;20201;-38
2022/03/05 12:25:40;;;;;;;7.10;4.90;;;9.40;89.00;;;;;;4974972;28;20216;-38
2022/03/05 12:28:13;;;;;;;6.73;5.37;;;9.30;88.20;;;;;;4959335;28;20184;-37
2022/03/05 12:30:41;;;;;;;7.40;5.60;;;9.30;89.30;;;;;;4985988;28;20214;-39
2022/03/05 12:33:09;;;;;;;8.13;6.07;;;9.50;90.00;;;;;;4982976;28;20192;-38
2022/03/05 12:35:37;;;;;;;8.17;6.00;;;9.00;87.30;;;;;;4984827;28;20342;-37